createdAt,value
2022-09-25T00:01:45.417Z,75.07
2022-09-25T00:04:42.891Z,75.15
2022-09-25T00:07:40.335Z,75.27
2022-09-25T00:10:37.785Z,75.40
2022-09-25T00:13:35.208Z,75.47
2022-09-25T00:16:32.983Z,75.49
2022-09-25T00:19:48.299Z,75.52
2022-09-25T00:22:45.774Z,75.60
2022-09-25T00:25:43.263Z,75.60
2022-09-25T00:28:40.961Z,75.60
2022-09-25T00:31:38.962Z,75.60
2022-09-25T00:34:36.366Z,75.58
2022-09-25T00:37:34.013Z,75.62
2022-09-25T00:40:31.488Z,75.70
2022-09-25T00:43:28.906Z,75.70
2022-09-25T00:46:26.423Z,75.68
2022-09-25T00:49:23.906Z,75.70
2022-09-25T00:52:22.428Z,75.70
2022-09-25T00:55:19.837Z,75.71
2022-09-25T00:58:17.309Z,75.73
2022-09-25T01:01:14.913Z,75.73
2022-09-25T01:04:13.240Z,75.72
2022-09-25T01:07:10.773Z,75.72
2022-09-25T01:10:08.211Z,75.76
2022-09-25T01:13:05.695Z,75.80
2022-09-25T01:16:03.175Z,75.80
2022-09-25T01:19:00.632Z,75.80
2022-09-25T01:21:58.621Z,75.84
2022-09-25T01:24:56.084Z,75.90
2022-09-25T01:27:53.559Z,75.90
2022-09-25T01:30:51.052Z,75.92
2022-09-25T01:33:48.492Z,75.94
2022-09-25T01:36:45.929Z,75.96
2022-09-25T01:39:43.349Z,76.00
2022-09-25T01:42:40.790Z,76.00
2022-09-25T01:45:38.249Z,76.02
2022-09-25T01:48:35.704Z,76.07
2022-09-25T01:51:33.151Z,76.13
2022-09-25T01:54:30.587Z,76.18
2022-09-25T01:57:28.022Z,76.29
2022-09-25T02:00:25.992Z,76.31
2022-09-25T02:03:23.436Z,76.35
2022-09-25T02:06:21.010Z,76.38
2022-09-25T02:09:19.203Z,76.40
2022-09-25T02:12:16.628Z,76.40
2022-09-25T02:15:14.069Z,76.40
2022-09-25T02:18:29.153Z,76.43
2022-09-25T02:21:26.584Z,76.49
2022-09-25T02:24:24.038Z,76.45
2022-09-25T02:27:21.482Z,76.44
2022-09-25T02:30:18.942Z,76.42
2022-09-25T02:33:16.416Z,76.45
2022-09-25T02:36:13.844Z,76.43
2022-09-25T02:39:11.312Z,76.40
2022-09-25T02:42:08.849Z,76.43
2022-09-25T02:45:06.304Z,76.49
2022-09-25T02:48:03.760Z,76.51
2022-09-25T02:51:02.866Z,76.52
2022-09-25T02:54:01.280Z,76.51
2022-09-25T02:57:03.565Z,76.52
2022-09-25T03:00:01.633Z,76.57
2022-09-25T03:02:59.677Z,76.59
2022-09-25T03:05:57.399Z,76.56
2022-09-25T03:08:55.314Z,76.57
2022-09-25T03:11:52.955Z,76.54
2022-09-25T03:14:50.854Z,76.50
2022-09-25T03:17:51.298Z,76.55
2022-09-25T03:20:48.802Z,76.58
2022-09-25T03:23:46.221Z,76.62
2022-09-25T03:26:43.645Z,76.68
2022-09-25T03:29:41.138Z,76.72
2022-09-25T03:32:39.593Z,76.79
2022-09-25T03:35:37.064Z,76.80
2022-09-25T03:38:34.550Z,76.80
2022-09-25T03:41:31.985Z,76.82
2022-09-25T03:44:29.436Z,76.83
2022-09-25T03:47:26.860Z,76.86
2022-09-25T03:50:24.313Z,76.87
2022-09-25T03:53:21.729Z,76.90
2022-09-25T03:56:20.188Z,76.90
2022-09-25T03:59:17.984Z,76.93
2022-09-25T04:02:15.478Z,77.00
2022-09-25T04:05:12.928Z,77.01
2022-09-25T04:08:10.363Z,77.03
2022-09-25T04:11:07.898Z,77.07
2022-09-25T04:14:05.323Z,77.10
2022-09-25T04:17:02.742Z,77.14
2022-09-25T04:20:00.215Z,77.20
2022-09-25T04:22:57.673Z,77.20
2022-09-25T04:25:55.092Z,77.13
2022-09-25T04:28:52.740Z,77.20
2022-09-25T04:32:10.162Z,77.20
2022-09-25T04:35:07.587Z,77.20
2022-09-25T04:38:05.036Z,77.20
2022-09-25T04:41:02.480Z,77.20
2022-09-25T04:43:59.886Z,77.22
2022-09-25T04:46:57.319Z,77.29
2022-09-25T04:49:54.738Z,77.36
2022-09-25T04:52:52.176Z,77.46
2022-09-25T04:55:49.602Z,77.51
2022-09-25T04:58:47.561Z,77.53
2022-09-25T05:01:45.307Z,77.57
2022-09-25T05:04:42.916Z,77.59
2022-09-25T05:07:40.643Z,77.68
2022-09-25T05:10:39.810Z,77.70
2022-09-25T05:13:37.260Z,77.70
2022-09-25T05:16:34.791Z,77.70
2022-09-25T05:19:32.421Z,77.72
2022-09-25T05:22:29.858Z,77.78
2022-09-25T05:25:27.292Z,77.79
2022-09-25T05:28:25.008Z,77.81
2022-09-25T05:31:22.485Z,77.81
2022-09-25T05:34:19.947Z,77.83
2022-09-25T05:37:17.387Z,77.83
2022-09-25T05:40:15.761Z,77.82
2022-09-25T05:43:13.290Z,77.83
2022-09-25T05:46:10.783Z,77.81
2022-09-25T05:49:08.383Z,77.82
2022-09-25T05:52:05.879Z,77.85
2022-09-25T05:55:03.733Z,77.80
2022-09-25T05:58:01.224Z,77.80
2022-09-25T06:00:58.645Z,77.80
2022-09-25T06:03:56.083Z,77.80
2022-09-25T06:06:53.563Z,77.74
2022-09-25T06:09:51.020Z,77.71
2022-09-25T06:12:48.499Z,77.70
2022-09-25T06:15:45.960Z,77.66
2022-09-25T06:18:43.468Z,77.52
2022-09-25T06:21:40.890Z,77.33
2022-09-25T06:24:38.340Z,77.25
2022-09-25T06:27:35.799Z,77.17
2022-09-25T06:30:34.503Z,77.06
2022-09-25T06:33:32.113Z,76.96
2022-09-25T06:36:29.550Z,76.81
2022-09-25T06:39:27.040Z,76.63
2022-09-25T06:42:24.472Z,76.52
2022-09-25T06:45:21.876Z,76.36
2022-09-25T06:48:22.007Z,76.28
2022-09-25T06:51:19.781Z,76.18
2022-09-25T06:54:17.244Z,76.05
2022-09-25T06:57:14.997Z,75.89
2022-09-25T07:00:12.428Z,75.78
2022-09-25T07:03:27.490Z,75.70
2022-09-25T07:06:26.637Z,75.64
2022-09-25T07:09:24.311Z,75.57
2022-09-25T07:12:22.052Z,75.46
2022-09-25T07:15:19.700Z,75.18
2022-09-25T07:18:17.110Z,74.83
2022-09-25T07:21:14.525Z,74.48
2022-09-25T07:24:12.040Z,74.32
2022-09-25T07:27:09.597Z,74.19
2022-09-25T07:30:07.033Z,74.06
2022-09-25T07:33:04.457Z,73.81
2022-09-25T07:36:02.135Z,73.62
2022-09-25T07:38:59.549Z,73.42
2022-09-25T07:41:57.045Z,73.18
2022-09-25T07:44:54.597Z,73.02
2022-09-25T07:47:52.114Z,72.85
2022-09-25T07:50:50.221Z,72.52
2022-09-25T07:53:47.648Z,72.31
2022-09-25T07:56:45.118Z,72.03
2022-09-25T07:59:42.621Z,71.82
2022-09-25T08:02:40.084Z,71.56
2022-09-25T08:05:37.588Z,71.36
2022-09-25T08:08:35.033Z,71.19
2022-09-25T08:11:33.285Z,70.93
2022-09-25T08:14:30.892Z,70.59
2022-09-25T08:17:31.846Z,70.55
2022-09-25T08:20:29.275Z,70.39
2022-09-25T08:23:26.714Z,70.21
2022-09-25T08:26:24.205Z,70.25
2022-09-25T08:29:21.642Z,70.19
2022-09-25T08:32:19.079Z,70.06
2022-09-25T08:35:16.951Z,69.95
2022-09-25T08:38:14.411Z,69.71
2022-09-25T08:41:12.687Z,69.58
2022-09-25T08:44:10.167Z,69.54
2022-09-25T08:47:25.348Z,69.39
2022-09-25T08:50:22.861Z,69.30
2022-09-25T08:53:20.308Z,69.28
2022-09-25T08:56:18.754Z,69.20
2022-09-25T08:59:16.343Z,69.18
2022-09-25T09:02:13.831Z,69.16
2022-09-25T09:05:12.064Z,69.10
2022-09-25T09:08:09.529Z,69.06
2022-09-25T09:11:10.055Z,69.03
2022-09-25T09:14:10.912Z,68.97
2022-09-25T09:17:08.343Z,68.98
2022-09-25T09:20:05.807Z,68.90
2022-09-25T09:23:03.265Z,68.80
2022-09-25T09:26:00.728Z,68.83
2022-09-25T09:28:58.163Z,68.82
2022-09-25T09:31:56.869Z,68.70
2022-09-25T09:35:06.870Z,68.72
2022-09-25T09:38:06.131Z,68.76
2022-09-25T09:41:03.586Z,68.68
2022-09-25T09:44:02.029Z,68.69
2022-09-25T09:46:59.487Z,68.78
2022-09-25T09:49:57.019Z,68.90
2022-09-25T09:52:54.474Z,68.87
2022-09-25T09:55:51.915Z,68.74
2022-09-25T09:58:50.461Z,68.57
2022-09-25T10:01:48.088Z,68.50
2022-09-25T10:04:45.738Z,68.37
2022-09-25T10:07:43.169Z,68.25
2022-09-25T10:10:40.578Z,68.24
2022-09-25T10:13:37.995Z,68.20
2022-09-25T10:16:35.425Z,68.11
2022-09-25T10:19:32.874Z,68.02
2022-09-25T10:22:30.336Z,67.91
2022-09-25T10:25:27.788Z,67.79
2022-09-25T10:28:25.230Z,67.74
2022-09-25T10:31:22.740Z,67.82
2022-09-25T10:34:21.500Z,67.88
2022-09-25T10:37:19.859Z,67.95
2022-09-25T10:40:17.353Z,68.03
2022-09-25T10:43:14.822Z,68.10
2022-09-25T10:46:12.322Z,68.11
2022-09-25T10:49:27.482Z,68.20
2022-09-25T10:52:24.888Z,68.22
2022-09-25T10:55:22.400Z,68.20
2022-09-25T10:58:19.911Z,68.33
2022-09-25T11:01:17.466Z,68.47
2022-09-25T11:04:16.041Z,68.40
2022-09-25T11:07:13.452Z,68.46
2022-09-25T11:10:11.470Z,68.53
2022-09-25T11:13:08.903Z,68.61
2022-09-25T11:16:09.662Z,68.57
2022-09-25T11:19:07.118Z,68.49
2022-09-25T11:22:08.075Z,68.50
2022-09-25T11:25:05.705Z,68.39
2022-09-25T11:28:04.319Z,68.24
2022-09-25T11:31:02.292Z,68.15
2022-09-25T11:33:59.786Z,68.06
2022-09-25T11:36:57.230Z,67.93
2022-09-25T11:40:12.681Z,67.78
2022-09-25T11:43:10.197Z,67.63
2022-09-25T11:46:08.506Z,67.49
2022-09-25T11:49:12.169Z,67.47
2022-09-25T11:52:10.123Z,67.24
2022-09-25T11:55:07.569Z,66.99
2022-09-25T11:58:04.987Z,66.65
2022-09-25T12:01:02.488Z,66.42
2022-09-25T12:03:59.963Z,66.35
2022-09-25T12:06:58.422Z,66.30
2022-09-25T12:09:55.856Z,66.32
2022-09-25T12:12:53.311Z,66.31
2022-09-25T12:15:50.729Z,66.43
2022-09-25T12:18:48.409Z,66.49
2022-09-25T12:21:47.977Z,66.57
2022-09-25T12:24:45.423Z,66.34
2022-09-25T12:27:42.895Z,66.26
2022-09-25T12:30:40.375Z,66.44
2022-09-25T12:33:38.919Z,66.42
2022-09-25T12:36:36.820Z,66.18
2022-09-25T12:39:35.471Z,66.08
2022-09-25T12:42:32.900Z,65.93
2022-09-25T12:45:30.321Z,65.93
2022-09-25T12:48:27.761Z,65.82
2022-09-25T12:51:26.271Z,65.78
2022-09-25T12:54:24.022Z,65.60
2022-09-25T12:57:21.463Z,65.44
2022-09-25T13:00:19.119Z,65.47
2022-09-25T13:03:16.793Z,65.52
2022-09-25T13:06:14.679Z,65.32
2022-09-25T13:09:12.124Z,65.24
2022-09-25T13:12:09.581Z,65.13
2022-09-25T13:15:09.816Z,65.02
2022-09-25T13:18:07.246Z,64.91
2022-09-25T13:21:05.030Z,64.85
2022-09-25T13:24:02.463Z,64.78
2022-09-25T13:27:00.007Z,64.39
2022-09-25T13:29:57.463Z,64.33
2022-09-25T13:32:54.904Z,64.29
2022-09-25T13:35:52.313Z,64.13
2022-09-25T13:39:07.600Z,63.97
2022-09-25T13:42:06.433Z,63.96
2022-09-25T13:45:07.913Z,63.86
2022-09-25T13:48:07.891Z,63.88
2022-09-25T13:51:05.589Z,64.07
2022-09-25T13:54:03.862Z,64.26
2022-09-25T13:57:01.308Z,64.43
2022-09-25T13:59:58.787Z,64.59
2022-09-25T14:03:01.733Z,64.73
2022-09-25T14:05:59.407Z,64.70
2022-09-25T14:08:56.879Z,64.57
2022-09-25T14:11:54.290Z,64.58
2022-09-25T14:14:55.264Z,64.53
2022-09-25T14:17:53.002Z,64.50
2022-09-25T14:20:50.443Z,64.37
2022-09-25T14:23:47.983Z,64.39
2022-09-25T14:26:45.411Z,64.50
2022-09-25T14:29:43.512Z,64.59
2022-09-25T14:32:55.078Z,64.68
2022-09-25T14:35:53.600Z,64.68
2022-09-25T14:38:51.098Z,64.78
2022-09-25T14:41:49.255Z,64.85
2022-09-25T14:44:49.319Z,64.82
2022-09-25T14:47:47.561Z,64.86
2022-09-25T14:50:45.029Z,64.82
2022-09-25T14:53:42.878Z,64.78
2022-09-25T14:56:40.559Z,64.78
2022-09-25T14:59:40.283Z,64.84
2022-09-25T15:02:37.988Z,64.84
2022-09-25T15:05:36.097Z,64.82
2022-09-25T15:08:33.546Z,64.97
2022-09-25T15:11:30.984Z,65.29
2022-09-25T15:14:28.408Z,65.51
2022-09-25T15:17:25.851Z,65.65
2022-09-25T15:20:23.446Z,65.82
2022-09-25T15:23:20.871Z,66.00
2022-09-25T15:26:18.742Z,66.27
2022-09-25T15:29:18.195Z,66.55
2022-09-25T15:32:16.288Z,66.73
2022-09-25T15:35:16.394Z,66.86
2022-09-25T15:38:14.735Z,66.95
2022-09-25T15:41:12.980Z,67.03
2022-09-25T15:44:11.293Z,67.16
2022-09-25T15:47:09.602Z,67.29
2022-09-25T15:50:07.876Z,67.44
2022-09-25T15:53:06.195Z,67.65
2022-09-25T15:56:04.585Z,67.71
2022-09-25T15:59:02.878Z,67.76
2022-09-25T16:02:18.448Z,67.93
2022-09-25T16:05:20.752Z,68.13
2022-09-25T16:08:19.648Z,68.25
2022-09-25T16:11:18.055Z,68.44
2022-09-25T16:14:17.121Z,68.68
2022-09-25T16:17:15.416Z,68.86
2022-09-25T16:20:14.984Z,69.08
2022-09-25T16:23:13.003Z,69.27
2022-09-25T16:26:10.459Z,69.43
2022-09-25T16:29:08.486Z,69.59
2022-09-25T16:32:05.926Z,69.73
2022-09-25T16:35:03.586Z,69.93
2022-09-25T16:38:01.798Z,70.14
2022-09-25T16:40:59.342Z,70.39
2022-09-25T16:43:56.892Z,70.61
2022-09-25T16:46:54.414Z,70.85
2022-09-25T16:49:51.865Z,70.97
2022-09-25T16:52:49.315Z,71.12
2022-09-25T16:55:49.261Z,71.24
2022-09-25T16:58:46.714Z,71.38
2022-09-25T17:01:44.197Z,71.44
2022-09-25T17:04:41.764Z,71.57
2022-09-25T17:07:39.221Z,71.68
2022-09-25T17:10:36.649Z,71.81
2022-09-25T17:13:34.569Z,71.94
2022-09-25T17:16:32.306Z,72.04
2022-09-25T17:19:29.822Z,72.19
2022-09-25T17:22:30.285Z,72.31
2022-09-25T17:25:28.450Z,72.44
2022-09-25T17:28:26.163Z,72.55
2022-09-25T17:31:26.110Z,72.68
2022-09-25T17:34:25.798Z,72.77
2022-09-25T17:37:23.449Z,72.90
2022-09-25T17:40:21.026Z,73.01
2022-09-25T17:43:18.476Z,73.17
2022-09-25T17:46:17.173Z,73.26
2022-09-25T17:49:14.957Z,73.38
2022-09-25T17:52:12.578Z,73.47
2022-09-25T17:55:10.024Z,73.59
2022-09-25T17:58:07.437Z,73.66
2022-09-25T18:01:07.174Z,73.74
2022-09-25T18:04:04.683Z,73.83
2022-09-25T18:07:02.370Z,73.89
2022-09-25T18:09:59.861Z,73.98
2022-09-25T18:12:57.290Z,74.07
2022-09-25T18:15:54.806Z,74.09
2022-09-25T18:19:10.077Z,74.08
2022-09-25T18:22:22.249Z,74.13
2022-09-25T18:25:20.146Z,74.19
2022-09-25T18:28:18.201Z,74.22
2022-09-25T18:31:15.799Z,74.31
2022-09-25T18:34:13.233Z,74.40
2022-09-25T18:37:11.059Z,74.51
2022-09-25T18:40:09.770Z,74.60
2022-09-25T18:43:07.836Z,74.62
2022-09-25T18:46:05.556Z,74.69
2022-09-25T18:49:03.314Z,74.73
2022-09-25T18:52:01.283Z,74.80
2022-09-25T18:55:00.588Z,74.83
2022-09-25T18:58:00.234Z,74.93
2022-09-25T19:00:57.995Z,75.03
2022-09-25T19:03:55.829Z,75.10
2022-09-25T19:06:53.770Z,75.12
2022-09-25T19:09:57.076Z,75.24
2022-09-25T19:12:54.581Z,75.32
2022-09-25T19:15:54.045Z,75.39
2022-09-25T19:18:51.896Z,75.44
2022-09-25T19:21:49.396Z,75.47
2022-09-25T19:24:47.479Z,75.50
2022-09-25T19:27:44.956Z,75.58
2022-09-25T19:30:42.465Z,75.67
2022-09-25T19:33:39.910Z,75.72
2022-09-25T19:36:39.115Z,75.78
2022-09-25T19:39:57.497Z,75.83
2022-09-25T19:42:55.310Z,75.95
2022-09-25T19:45:53.850Z,76.06
2022-09-25T19:48:51.426Z,76.10
2022-09-25T19:51:50.541Z,76.15
2022-09-25T19:54:48.054Z,76.18
2022-09-25T19:57:47.466Z,76.20
2022-09-25T20:00:45.081Z,76.25
2022-09-25T20:03:42.494Z,76.30
2022-09-25T20:06:39.958Z,76.37
2022-09-25T20:09:39.855Z,76.47
2022-09-25T20:12:37.612Z,76.64
2022-09-25T20:15:35.412Z,76.82
2022-09-25T20:18:32.897Z,76.97
2022-09-25T20:21:30.337Z,77.11
2022-09-25T20:24:29.544Z,77.27
2022-09-25T20:27:27.414Z,77.36
2022-09-25T20:30:25.253Z,77.48
2022-09-25T20:33:22.717Z,77.60
2022-09-25T20:36:20.161Z,77.71
2022-09-25T20:39:21.205Z,77.77
2022-09-25T20:42:19.148Z,77.90
2022-09-25T20:45:16.580Z,78.03
2022-09-25T20:48:18.171Z,78.15
2022-09-25T20:51:16.133Z,78.25
2022-09-25T20:54:13.741Z,78.36
2022-09-25T20:57:11.258Z,78.52
2022-09-25T21:00:08.729Z,78.61
2022-09-25T21:03:06.269Z,78.72
2022-09-25T21:06:03.745Z,78.80
2022-09-25T21:09:01.629Z,78.88
2022-09-25T21:11:59.070Z,78.98
2022-09-25T21:14:56.524Z,79.11
2022-09-25T21:17:53.966Z,79.20
2022-09-25T21:20:51.402Z,79.30
2022-09-25T21:23:49.081Z,79.38
2022-09-25T21:26:46.520Z,79.46
2022-09-25T21:29:43.961Z,79.52
2022-09-25T21:32:41.419Z,79.59
2022-09-25T21:35:38.877Z,79.60
2022-09-25T21:38:37.353Z,79.66
2022-09-25T21:41:34.786Z,79.76
2022-09-25T21:44:32.242Z,79.82
2022-09-25T21:47:29.752Z,79.91
2022-09-25T21:50:27.163Z,80.00
2022-09-25T21:53:24.572Z,80.02
2022-09-25T21:56:22.746Z,80.03
2022-09-25T21:59:20.167Z,80.09
2022-09-25T22:02:17.561Z,80.08
2022-09-25T22:05:14.993Z,80.10
2022-09-25T22:08:12.458Z,80.10
2022-09-25T22:11:09.897Z,80.13
2022-09-25T22:14:10.922Z,80.18
2022-09-25T22:17:11.121Z,80.21
2022-09-25T22:20:11.316Z,80.27
2022-09-25T22:23:08.743Z,80.30
2022-09-25T22:26:06.192Z,80.33
2022-09-25T22:29:03.601Z,80.39
2022-09-25T22:32:01.053Z,80.40
2022-09-25T22:34:58.507Z,80.41
2022-09-25T22:37:55.931Z,80.49
2022-09-25T22:40:53.385Z,80.53
2022-09-25T22:43:50.825Z,80.61
2022-09-25T22:46:48.253Z,80.70
2022-09-25T22:49:45.726Z,80.70
2022-09-25T22:52:43.151Z,80.78
2022-09-25T22:55:40.587Z,80.83
2022-09-25T22:58:38.038Z,80.91
2022-09-25T23:01:36.809Z,80.95
2022-09-25T23:04:34.395Z,80.97
2022-09-25T23:07:31.811Z,81.00
2022-09-25T23:10:43.014Z,81.02
2022-09-25T23:13:46.973Z,81.08
2022-09-25T23:16:44.513Z,81.11
2022-09-25T23:19:41.980Z,81.14
2022-09-25T23:22:39.422Z,81.19
2022-09-25T23:25:36.849Z,81.26
2022-09-25T23:28:34.626Z,81.29
2022-09-25T23:31:32.138Z,81.29
2022-09-25T23:34:29.582Z,81.30
2022-09-25T23:37:27.283Z,81.29
2022-09-25T23:40:24.749Z,81.21
2022-09-25T23:43:22.227Z,81.23
2022-09-25T23:46:19.686Z,81.28
2022-09-25T23:49:17.200Z,81.30
2022-09-25T23:52:14.769Z,81.35
2022-09-25T23:55:12.197Z,81.38
2022-09-25T23:58:09.619Z,81.42
